Time;durP1;ratioP1;P1;durP2;ratioP2;P2;SDS_P1;SDS_P2;PMS_P1;PMS_P2;Temp;Humidity;BMP_temperature;BMP_pressure;BME280_temperature;BME280_humidity;BME280_pressure;Samples;Min_cycle;Max_cycle;Signal;HPM_P1;HPM_P2
2021/10/29 00:00:10;;;;;;;53.65;36.35;;;8.00;99.90;;;;;;2105747;28;20065;-73
2021/10/29 00:01:11;;;;;;;55.55;36.92;;;8.00;99.90;;;;;;2103771;28;20016;-73
2021/10/29 00:02:12;;;;;;;55.38;36.67;;;8.10;99.90;;;;;;2106238;28;20524;-74
2021/10/29 00:03:12;;;;;;;53.25;36.58;;;8.10;99.90;;;;;;2103570;28;20107;-74
2021/10/29 00:04:13;;;;;;;53.90;36.90;;;8.10;99.90;;;;;;2106094;28;20031;-74
2021/10/29 00:05:13;;;;;;;54.92;36.78;;;8.10;99.90;;;;;;2102985;28;20030;-74
2021/10/29 00:06:14;;;;;;;55.13;37.35;;;8.10;99.90;;;;;;2105520;28;20023;-74
2021/10/29 00:07:15;;;;;;;53.10;36.83;;;8.10;99.90;;;;;;2103734;28;20363;-74
2021/10/29 00:08:15;;;;;;;56.15;37.22;;;8.10;99.90;;;;;;2106265;28;20418;-73
2021/10/29 00:09:16;;;;;;;53.80;35.75;;;8.10;99.90;;;;;;2103109;28;20026;-73
2021/10/29 00:10:16;;;;;;;49.75;34.17;;;8.10;99.90;;;;;;2106106;28;20028;-73
2021/10/29 00:11:17;;;;;;;51.80;35.58;;;8.00;99.90;;;;;;2103314;28;20039;-74
2021/10/29 00:12:19;;;;;;;51.92;34.47;;;8.00;99.90;;;;;;2106037;28;20040;-74
2021/10/29 00:13:19;;;;;;;51.13;35.75;;;7.90;99.90;;;;;;2103682;28;20023;-74
2021/10/29 00:14:20;;;;;;;50.97;35.03;;;7.90;99.90;;;;;;2105744;28;20076;-74
2021/10/29 00:15:20;;;;;;;57.88;37.60;;;7.90;99.90;;;;;;2103676;28;20119;-74
2021/10/29 00:16:21;;;;;;;57.20;37.05;;;7.80;99.90;;;;;;2105466;28;20032;-74
2021/10/29 00:17:22;;;;;;;58.72;38.20;;;7.90;99.90;;;;;;2093891;28;20598;-74
2021/10/29 00:18:23;;;;;;;56.80;37.25;;;8.00;99.90;;;;;;2102346;28;20050;-74
2021/10/29 00:19:23;;;;;;;57.08;37.35;;;8.00;99.90;;;;;;2103081;28;20051;-74
2021/10/29 00:20:24;;;;;;;55.90;37.10;;;8.00;99.90;;;;;;2106100;28;20110;-74
2021/10/29 00:21:25;;;;;;;56.45;38.40;;;8.00;99.90;;;;;;2102774;28;20052;-74
2021/10/29 00:22:26;;;;;;;53.78;36.60;;;8.00;99.90;;;;;;2105541;28;20505;-74
2021/10/29 00:23:30;;;;;;;53.03;36.95;;;8.00;99.90;;;;;;2102794;28;20025;-73
2021/10/29 00:24:32;;;;;;;56.40;38.22;;;8.00;99.90;;;;;;2105092;28;20032;-73
2021/10/29 00:25:32;;;;;;;55.25;38.15;;;8.00;99.90;;;;;;2104415;28;20035;-73
2021/10/29 00:26:33;;;;;;;58.42;38.78;;;8.00;99.90;;;;;;2104973;28;20499;-74
2021/10/29 00:27:34;;;;;;;53.03;36.83;;;8.00;99.90;;;;;;2104714;28;20121;-73
2021/10/29 00:28:34;;;;;;;55.33;37.55;;;7.90;99.90;;;;;;2105045;28;20028;-73
2021/10/29 00:29:35;;;;;;;55.50;36.78;;;7.90;99.90;;;;;;2104393;28;20118;-73
2021/10/29 00:30:36;;;;;;;53.25;36.75;;;7.90;99.90;;;;;;2104661;28;20024;-73
2021/10/29 00:31:36;;;;;;;55.72;37.90;;;7.90;99.90;;;;;;2104551;28;20085;-73
2021/10/29 00:32:37;;;;;;;52.65;35.20;;;7.90;99.90;;;;;;2103840;28;20039;-73
2021/10/29 00:33:38;;;;;;;55.88;38.83;;;7.90;99.90;;;;;;2104321;28;20101;-73
2021/10/29 00:34:39;;;;;;;54.00;36.88;;;7.80;99.90;;;;;;2104222;28;20047;-73
2021/10/29 00:35:39;;;;;;;54.50;36.88;;;7.80;99.90;;;;;;2105146;28;20028;-73
2021/10/29 00:36:40;;;;;;;54.97;37.58;;;7.80;99.90;;;;;;2103940;28;20075;-74
2021/10/29 00:37:41;;;;;;;54.40;36.70;;;7.80;99.90;;;;;;2105309;28;20028;-73
2021/10/29 00:38:41;;;;;;;54.22;37.38;;;7.80;99.90;;;;;;2103085;28;20483;-73
2021/10/29 00:39:42;;;;;;;52.15;35.58;;;7.80;99.90;;;;;;2096058;28;20036;-73
2021/10/29 00:40:42;;;;;;;53.60;36.25;;;7.70;99.90;;;;;;2103036;28;20082;-73
2021/10/29 00:41:43;;;;;;;55.33;37.20;;;7.70;99.90;;;;;;2104758;28;20074;-73
2021/10/29 00:42:44;;;;;;;60.40;39.15;;;7.70;99.90;;;;;;2102814;28;20032;-73
2021/10/29 00:43:44;;;;;;;56.72;37.97;;;7.70;99.90;;;;;;2096914;28;20032;-74
2021/10/29 00:44:45;;;;;;;55.45;36.65;;;7.70;99.90;;;;;;2096410;28;20024;-73
2021/10/29 00:45:47;;;;;;;58.13;39.25;;;7.70;99.90;;;;;;2105172;28;20089;-74
2021/10/29 00:46:48;;;;;;;54.50;37.80;;;7.70;99.90;;;;;;2103341;28;20021;-73
2021/10/29 00:47:51;;;;;;;53.42;38.35;;;7.70;99.90;;;;;;2105719;28;20031;-73
2021/10/29 00:48:52;;;;;;;55.80;37.42;;;7.60;99.90;;;;;;2102580;28;20025;-73
2021/10/29 00:49:53;;;;;;;56.08;38.38;;;7.60;99.90;;;;;;2096166;28;20031;-73
2021/10/29 00:50:53;;;;;;;56.08;38.60;;;7.60;99.90;;;;;;2097886;28;20024;-73
2021/10/29 00:51:54;;;;;;;56.50;37.97;;;7.60;99.90;;;;;;2105397;28;20024;-73
2021/10/29 00:52:56;;;;;;;55.72;38.85;;;7.60;99.90;;;;;;2103222;28;20502;-73
2021/10/29 00:53:57;;;;;;;54.20;37.53;;;7.60;99.90;;;;;;2105659;28;20046;-73
2021/10/29 00:54:58;;;;;;;55.17;37.95;;;7.60;99.90;;;;;;2105813;28;20024;-72
2021/10/29 00:55:59;;;;;;;56.67;38.88;;;7.60;99.90;;;;;;2105955;28;20055;-73
2021/10/29 00:56:59;;;;;;;59.05;38.38;;;7.60;99.90;;;;;;2103563;28;20054;-73
2021/10/29 00:58:00;;;;;;;54.38;37.38;;;7.60;99.90;;;;;;2106089;28;20016;-73
2021/10/29 00:59:01;;;;;;;51.70;37.22;;;7.60;99.90;;;;;;2106071;28;20094;-73
2021/10/29 01:00:04;;;;;;;57.28;38.95;;;7.50;99.90;;;;;;2105653;28;20093;-74
2021/10/29 01:01:04;;;;;;;58.67;38.83;;;7.60;99.90;;;;;;2100708;28;20021;-72
2021/10/29 01:02:05;;;;;;;56.33;38.60;;;7.60;99.90;;;;;;2100367;28;20032;-74
2021/10/29 01:03:05;;;;;;;57.38;38.95;;;7.60;99.90;;;;;;2105846;28;20032;-72
2021/10/29 01:04:06;;;;;;;55.28;38.65;;;7.60;99.90;;;;;;2105624;28;20016;-73
2021/10/29 01:05:08;;;;;;;55.40;38.25;;;7.70;99.90;;;;;;2103279;28;20024;-73
2021/10/29 01:06:10;;;;;;;56.30;37.78;;;7.60;99.90;;;;;;2105661;28;20666;-73
2021/10/29 01:07:12;;;;;;;60.08;40.22;;;7.60;99.90;;;;;;2103264;28;20447;-72
2021/10/29 01:08:13;;;;;;;57.95;39.72;;;7.60;99.90;;;;;;2106006;28;20481;-72
2021/10/29 01:09:14;;;;;;;60.38;39.58;;;7.60;99.90;;;;;;2102945;28;20028;-73
2021/10/29 01:10:14;;;;;;;54.47;37.85;;;7.70;99.90;;;;;;2105896;28;20367;-73
2021/10/29 01:11:17;;;;;;;60.10;39.80;;;7.60;99.90;;;;;;2105563;28;20036;-72
2021/10/29 01:12:18;;;;;;;56.03;38.25;;;7.60;99.90;;;;;;2106011;28;20502;-72
2021/10/29 01:13:19;;;;;;;57.35;38.10;;;7.60;99.90;;;;;;2098470;28;20090;-72
2021/10/29 01:14:20;;;;;;;57.10;39.70;;;7.60;99.90;;;;;;2101597;28;20028;-74
2021/10/29 01:15:20;;;;;;;58.45;40.38;;;7.60;99.90;;;;;;2102561;28;20024;-73
2021/10/29 01:16:21;;;;;;;61.85;39.65;;;7.60;99.90;;;;;;2096742;28;20052;-72
2021/10/29 01:17:22;;;;;;;60.50;40.88;;;7.60;99.90;;;;;;2094504;28;20028;-73
2021/10/29 01:18:23;;;;;;;57.65;39.90;;;7.70;99.90;;;;;;2105900;28;20487;-73
2021/10/29 01:19:32;;;;;;;58.88;39.80;;;7.70;99.90;;;;;;2105234;28;20035;-74
2021/10/29 01:20:32;;;;;;;57.42;38.30;;;7.70;99.90;;;;;;2105820;28;20141;-74
2021/10/29 01:21:33;;;;;;;57.38;39.10;;;7.60;99.90;;;;;;2105625;28;20028;-72
2021/10/29 01:22:34;;;;;;;58.60;39.05;;;7.60;99.90;;;;;;2106153;28;20834;-73
2021/10/29 01:23:35;;;;;;;56.83;39.10;;;7.60;99.90;;;;;;2106003;28;20035;-73
2021/10/29 01:24:36;;;;;;;56.00;38.67;;;7.60;99.90;;;;;;2105323;28;20031;-72
2021/10/29 01:25:37;;;;;;;58.33;39.08;;;7.60;99.90;;;;;;2105351;28;20020;-74
2021/10/29 01:26:37;;;;;;;59.03;39.22;;;7.60;99.90;;;;;;2106362;28;20387;-72
2021/10/29 01:27:38;;;;;;;57.58;39.13;;;7.60;99.90;;;;;;2106185;28;20042;-74
2021/10/29 01:28:39;;;;;;;57.67;39.92;;;7.60;99.90;;;;;;2105902;28;20029;-73
2021/10/29 01:29:41;;;;;;;57.75;38.92;;;7.60;99.90;;;;;;2106305;28;20024;-73
2021/10/29 01:30:42;;;;;;;57.88;39.80;;;7.60;99.90;;;;;;2107045;28;20034;-73
2021/10/29 01:31:42;;;;;;;52.95;37.53;;;7.60;99.90;;;;;;2106471;28;20077;-74
2021/10/29 01:32:43;;;;;;;62.40;40.17;;;7.60;99.90;;;;;;2105525;28;20099;-74
2021/10/29 01:33:44;;;;;;;58.38;39.80;;;7.50;99.90;;;;;;2096945;28;20435;-73
2021/10/29 01:34:45;;;;;;;59.92;40.10;;;7.50;99.90;;;;;;2105099;28;20498;-74
2021/10/29 01:35:46;;;;;;;58.15;40.10;;;7.50;99.90;;;;;;2105300;28;20432;-73
2021/10/29 01:36:46;;;;;;;58.33;40.47;;;7.60;99.90;;;;;;2104827;28;20075;-73
2021/10/29 01:37:47;;;;;;;60.17;39.78;;;7.50;99.90;;;;;;2104991;28;20032;-73
2021/10/29 01:38:50;;;;;;;59.22;39.72;;;7.50;99.90;;;;;;2105428;28;20116;-74
2021/10/29 01:39:51;;;;;;;55.35;38.53;;;7.50;99.90;;;;;;2104937;28;20111;-73
2021/10/29 01:40:52;;;;;;;54.75;37.70;;;7.50;99.90;;;;;;2105363;28;20663;-73
2021/10/29 01:41:52;;;;;;;64.28;41.03;;;7.50;99.90;;;;;;2105121;28;20031;-73
2021/10/29 01:42:53;;;;;;;58.60;40.10;;;7.50;99.90;;;;;;2105374;28;20023;-73
2021/10/29 01:43:54;;;;;;;60.92;41.35;;;7.50;99.90;;;;;;2105531;28;20059;-73
2021/10/29 01:44:54;;;;;;;60.17;41.50;;;7.50;99.90;;;;;;2105499;28;20391;-73
2021/10/29 01:45:56;;;;;;;57.17;39.88;;;7.50;99.90;;;;;;2105589;28;20116;-73
2021/10/29 01:46:56;;;;;;;61.22;40.10;;;7.50;99.90;;;;;;2105438;28;20031;-74
2021/10/29 01:47:57;;;;;;;58.72;40.92;;;7.50;99.90;;;;;;2105368;28;20043;-73
2021/10/29 01:48:58;;;;;;;59.60;40.42;;;7.50;99.90;;;;;;2104718;28;20032;-73
2021/10/29 01:49:59;;;;;;;60.20;39.72;;;7.50;99.90;;;;;;2104171;28;20028;-73
2021/10/29 01:51:00;;;;;;;60.08;39.65;;;7.50;99.90;;;;;;2105314;28;20032;-74
2021/10/29 01:52:01;;;;;;;59.05;40.10;;;7.50;99.90;;;;;;2096045;28;20396;-74
2021/10/29 01:53:02;;;;;;;60.85;41.60;;;7.50;99.90;;;;;;2096275;28;20031;-73
2021/10/29 01:54:02;;;;;;;63.33;40.88;;;7.40;99.90;;;;;;2105343;28;20027;-74
2021/10/29 01:55:05;;;;;;;60.33;40.70;;;7.40;99.90;;;;;;2105335;28;20642;-73
2021/10/29 01:56:06;;;;;;;55.53;39.33;;;7.40;99.90;;;;;;2105625;28;20039;-73
2021/10/29 01:57:07;;;;;;;53.95;38.05;;;7.40;99.90;;;;;;2106499;28;20023;-74
2021/10/29 01:58:08;;;;;;;60.60;40.60;;;7.40;99.90;;;;;;2106950;28;20487;-74
2021/10/29 01:59:08;;;;;;;63.63;42.70;;;7.30;99.90;;;;;;2107664;28;20031;-73
2021/10/29 02:00:13;;;;;;;61.03;42.25;;;7.30;99.90;;;;;;2106494;28;20025;-74
2021/10/29 02:01:13;;;;;;;59.97;40.35;;;7.30;99.90;;;;;;2097943;28;20617;-72
2021/10/29 02:02:14;;;;;;;56.22;39.35;;;7.40;99.90;;;;;;2105160;28;20066;-74
2021/10/29 02:03:15;;;;;;;58.97;40.05;;;7.40;99.90;;;;;;2104817;28;20076;-73
2021/10/29 02:04:15;;;;;;;60.45;40.78;;;7.30;99.90;;;;;;2104749;28;20020;-73
2021/10/29 02:05:16;;;;;;;60.13;40.47;;;7.30;99.90;;;;;;2105287;28;20089;-73
2021/10/29 02:06:17;;;;;;;57.75;39.78;;;7.30;99.90;;;;;;2105432;28;20024;-73
2021/10/29 02:07:18;;;;;;;55.38;38.55;;;7.30;99.90;;;;;;2105484;28;20078;-73
2021/10/29 02:08:23;;;;;;;57.35;39.78;;;7.30;99.90;;;;;;2105380;28;20073;-73
2021/10/29 02:09:24;;;;;;;58.10;40.00;;;7.20;99.90;;;;;;2104793;28;20024;-73
2021/10/29 02:10:24;;;;;;;53.47;37.88;;;7.20;99.90;;;;;;2096067;28;20407;-73
2021/10/29 02:11:25;;;;;;;53.83;37.75;;;7.20;99.90;;;;;;2096017;28;20119;-72
2021/10/29 02:12:26;;;;;;;59.60;40.03;;;7.10;99.90;;;;;;2104784;28;20123;-73
2021/10/29 02:13:29;;;;;;;63.42;43.05;;;7.10;99.90;;;;;;2105070;28;20086;-72
2021/10/29 02:14:30;;;;;;;60.05;41.03;;;7.10;99.90;;;;;;2104800;28;20078;-72
2021/10/29 02:15:31;;;;;;;61.00;42.15;;;7.10;99.90;;;;;;2104922;28;20032;-73
2021/10/29 02:16:31;;;;;;;61.17;41.38;;;7.10;99.90;;;;;;2105902;28;20038;-72
2021/10/29 02:17:32;;;;;;;62.58;41.17;;;7.10;99.90;;;;;;2105536;28;20420;-73
2021/10/29 02:18:33;;;;;;;65.07;42.35;;;7.10;99.90;;;;;;2105732;28;20036;-73
2021/10/29 02:19:35;;;;;;;62.80;41.63;;;7.10;99.90;;;;;;2106541;28;20084;-72
2021/10/29 02:20:35;;;;;;;59.50;41.05;;;7.20;99.90;;;;;;2104683;28;20123;-71
2021/10/29 02:21:37;;;;;;;59.58;41.88;;;7.10;99.90;;;;;;2104802;28;20391;-74
2021/10/29 02:22:38;;;;;;;59.28;40.90;;;7.20;99.90;;;;;;2105575;28;20535;-72
2021/10/29 02:23:38;;;;;;;61.33;41.35;;;7.10;99.90;;;;;;2105497;28;20032;-75
2021/10/29 02:24:39;;;;;;;65.93;42.95;;;7.10;99.90;;;;;;2105883;28;20034;-73
2021/10/29 02:25:44;;;;;;;58.83;40.58;;;7.10;99.90;;;;;;2105658;28;20109;-73
2021/10/29 02:26:44;;;;;;;58.97;41.20;;;7.10;99.90;;;;;;2104930;28;20051;-73
2021/10/29 02:27:45;;;;;;;59.60;41.30;;;7.10;99.90;;;;;;2104784;28;20036;-73
2021/10/29 02:28:45;;;;;;;60.17;41.00;;;7.10;99.90;;;;;;2104781;28;20032;-73
2021/10/29 02:29:46;;;;;;;58.65;39.67;;;7.10;99.90;;;;;;2104909;28;20103;-74
2021/10/29 02:30:48;;;;;;;58.15;40.08;;;7.10;99.90;;;;;;2105468;28;20514;-71
2021/10/29 02:31:48;;;;;;;60.80;42.47;;;7.00;99.90;;;;;;2104305;28;20505;-74
2021/10/29 02:32:49;;;;;;;59.72;41.80;;;7.10;99.90;;;;;;2104671;28;20036;-72
2021/10/29 02:33:50;;;;;;;58.55;41.08;;;7.00;99.90;;;;;;2105261;28;20081;-72
2021/10/29 02:34:51;;;;;;;61.97;40.97;;;7.00;99.90;;;;;;2104931;28;20499;-72
2021/10/29 02:35:51;;;;;;;59.65;40.20;;;7.00;99.90;;;;;;2105243;28;20067;-72
2021/10/29 02:36:52;;;;;;;59.65;41.03;;;7.00;99.90;;;;;;2105145;28;20032;-73
2021/10/29 02:37:53;;;;;;;57.38;40.63;;;7.00;99.90;;;;;;2105095;28;20032;-73
2021/10/29 02:38:53;;;;;;;53.90;38.38;;;7.00;99.90;;;;;;2105063;28;20056;-73
2021/10/29 02:39:56;;;;;;;55.13;38.92;;;7.00;99.90;;;;;;2103909;28;20522;-72
2021/10/29 02:40:56;;;;;;;62.70;42.42;;;6.90;99.90;;;;;;2106118;28;20544;-72
2021/10/29 02:42:01;;;;;;;59.78;42.45;;;7.00;99.90;;;;;;2106506;28;20020;-73
2021/10/29 02:43:02;;;;;;;65.65;44.10;;;7.00;99.90;;;;;;2106810;28;20020;-73
2021/10/29 02:44:04;;;;;;;63.20;42.38;;;7.00;99.90;;;;;;2106807;28;20024;-73
2021/10/29 02:45:05;;;;;;;66.70;44.15;;;7.10;99.90;;;;;;2106715;28;20395;-73
2021/10/29 02:46:05;;;;;;;61.78;42.67;;;7.00;99.90;;;;;;2106790;28;20028;-73
2021/10/29 02:47:06;;;;;;;59.83;40.67;;;7.10;99.90;;;;;;2106708;28;20122;-73
2021/10/29 02:48:07;;;;;;;62.92;41.83;;;7.10;99.90;;;;;;2106661;28;20028;-73
2021/10/29 02:49:07;;;;;;;66.15;43.30;;;7.00;99.90;;;;;;2106847;28;20030;-73
2021/10/29 02:50:08;;;;;;;62.67;43.03;;;7.00;99.90;;;;;;2106235;28;20016;-73
2021/10/29 02:51:09;;;;;;;61.63;42.05;;;7.10;99.90;;;;;;2106703;28;20485;-73
2021/10/29 02:52:09;;;;;;;61.03;42.58;;;7.00;99.90;;;;;;2106769;28;20024;-73
2021/10/29 02:53:10;;;;;;;61.00;42.13;;;7.00;99.90;;;;;;2106786;28;20074;-73
2021/10/29 02:54:11;;;;;;;62.85;43.03;;;7.00;99.90;;;;;;2106809;28;20021;-72
2021/10/29 02:55:13;;;;;;;60.00;41.67;;;7.00;99.90;;;;;;2106208;28;20067;-72
2021/10/29 02:56:13;;;;;;;62.72;42.92;;;7.00;99.90;;;;;;2106212;28;20103;-73
2021/10/29 02:57:17;;;;;;;64.22;44.25;;;7.00;99.90;;;;;;2097982;28;20036;-73
2021/10/29 02:58:17;;;;;;;61.15;42.40;;;7.00;99.90;;;;;;2098001;28;20024;-74
2021/10/29 02:59:18;;;;;;;60.65;42.63;;;7.00;99.90;;;;;;2106199;28;20056;-72
2021/10/29 03:00:18;;;;;;;61.63;42.90;;;6.90;99.90;;;;;;2106398;28;20035;-73
2021/10/29 03:01:19;;;;;;;65.25;42.83;;;6.90;99.90;;;;;;2106377;28;20451;-73
2021/10/29 03:02:20;;;;;;;62.45;42.15;;;6.90;99.90;;;;;;2106710;28;20032;-72
2021/10/29 03:03:21;;;;;;;67.20;43.92;;;7.00;99.90;;;;;;2106651;28;20119;-72
2021/10/29 03:04:21;;;;;;;65.35;43.95;;;7.00;99.90;;;;;;2105937;28;20085;-72
2021/10/29 03:05:22;;;;;;;59.95;42.22;;;7.00;99.90;;;;;;2106019;28;20028;-72
2021/10/29 03:06:23;;;;;;;62.30;43.80;;;7.00;99.90;;;;;;2106648;28;20024;-72
2021/10/29 03:07:23;;;;;;;66.22;44.28;;;7.00;99.90;;;;;;2106702;28;20742;-72
2021/10/29 03:08:24;;;;;;;65.80;43.28;;;7.00;99.90;;;;;;2106601;28;20055;-72
2021/10/29 03:09:25;;;;;;;67.65;45.33;;;7.00;99.90;;;;;;2106107;28;20127;-72
2021/10/29 03:10:25;;;;;;;66.78;43.85;;;7.00;99.90;;;;;;2097545;28;20036;-72
2021/10/29 03:11:26;;;;;;;64.82;43.67;;;7.00;99.90;;;;;;2097319;28;20111;-72
2021/10/29 03:12:27;;;;;;;65.07;44.47;;;6.90;99.90;;;;;;2106841;28;20074;-72
2021/10/29 03:13:28;;;;;;;65.82;44.60;;;6.90;99.90;;;;;;2097413;28;20032;-72
2021/10/29 03:14:29;;;;;;;63.47;44.08;;;7.00;99.90;;;;;;2097606;28;20587;-72
2021/10/29 03:15:30;;;;;;;63.10;43.15;;;7.00;99.90;;;;;;2106524;28;20070;-72
2021/10/29 03:16:30;;;;;;;64.40;43.20;;;6.90;99.90;;;;;;2106519;28;20479;-72
2021/10/29 03:17:31;;;;;;;66.35;44.72;;;6.90;99.90;;;;;;2106668;28;20036;-72
2021/10/29 03:18:31;;;;;;;62.70;43.47;;;7.00;99.90;;;;;;2106699;28;20032;-72
2021/10/29 03:19:32;;;;;;;63.65;43.50;;;6.90;99.90;;;;;;2105515;28;20475;-72
2021/10/29 03:20:33;;;;;;;65.28;44.28;;;6.90;99.90;;;;;;2105740;28;20052;-72
2021/10/29 03:21:34;;;;;;;67.25;44.58;;;6.90;99.90;;;;;;2106235;28;20475;-72
2021/10/29 03:22:34;;;;;;;69.10;45.38;;;6.90;99.90;;;;;;2105932;28;20060;-72
2021/10/29 03:23:35;;;;;;;60.80;43.17;;;6.90;99.90;;;;;;2106035;28;20456;-72
2021/10/29 03:24:36;;;;;;;61.63;42.35;;;6.90;99.90;;;;;;2097450;28;20086;-72
2021/10/29 03:25:36;;;;;;;69.55;45.22;;;6.90;99.90;;;;;;2097705;28;20039;-72
2021/10/29 03:26:37;;;;;;;66.13;44.92;;;6.90;99.90;;;;;;2106616;28;20061;-72
2021/10/29 03:27:38;;;;;;;63.72;45.17;;;6.90;99.90;;;;;;2106542;28;20031;-71
2021/10/29 03:28:38;;;;;;;65.30;44.28;;;6.90;99.90;;;;;;2106355;28;20027;-71
2021/10/29 03:29:40;;;;;;;61.35;42.83;;;6.80;99.90;;;;;;2106154;28;20453;-71
2021/10/29 03:30:41;;;;;;;65.68;44.10;;;6.80;99.90;;;;;;2106644;28;20056;-71
2021/10/29 03:31:42;;;;;;;69.15;44.58;;;6.80;99.90;;;;;;2106321;28;20024;-72
2021/10/29 03:32:44;;;;;;;65.15;44.42;;;6.80;99.90;;;;;;2105931;28;20104;-71
2021/10/29 03:33:44;;;;;;;65.75;44.88;;;6.80;99.90;;;;;;2106434;28;20028;-72
2021/10/29 03:34:45;;;;;;;65.05;43.92;;;6.80;99.90;;;;;;2106687;28;20028;-72
2021/10/29 03:35:46;;;;;;;62.47;42.97;;;6.80;99.90;;;;;;2107177;28;20517;-71
2021/10/29 03:36:47;;;;;;;71.35;46.05;;;6.80;99.90;;;;;;2106543;28;20051;-71
2021/10/29 03:38:02;;;;;;;65.20;44.65;;;6.80;99.90;;;;;;2106360;28;20050;-71
2021/10/29 03:39:09;;;;;;;66.95;45.65;;;6.70;99.90;;;;;;2106619;28;20043;-71
2021/10/29 03:40:30;;;;;;;65.05;45.00;;;6.80;99.90;;;;;;2106593;28;20083;-71
2021/10/29 03:41:34;;;;;;;67.60;45.67;;;6.80;99.90;;;;;;2105771;28;20040;-72
2021/10/29 03:42:41;;;;;;;71.25;46.83;;;6.80;99.90;;;;;;2105786;28;20028;-72
2021/10/29 03:43:53;;;;;;;71.57;47.15;;;6.80;99.90;;;;;;2105995;28;20031;-72
2021/10/29 03:45:00;;;;;;;68.35;46.17;;;6.80;99.90;;;;;;2106485;28;20056;-72
2021/10/29 03:46:04;;;;;;;69.15;46.03;;;6.80;99.90;;;;;;2106534;28;20391;-72
2021/10/29 03:47:05;;;;;;;71.75;46.85;;;6.80;99.90;;;;;;2106512;28;20395;-71
2021/10/29 03:48:06;;;;;;;69.45;46.55;;;6.80;99.90;;;;;;2106552;28;20099;-72
2021/10/29 03:51:50;;;;;;;69.63;46.47;;;6.80;99.90;;;;;;2105760;28;20016;-72
2021/10/29 03:52:50;;;;;;;68.53;46.00;;;6.80;99.90;;;;;;2105597;28;20036;-72
2021/10/29 03:55:05;;;;;;;72.82;46.90;;;6.80;99.90;;;;;;2106473;28;20081;-72
2021/10/29 03:56:08;;;;;;;71.72;46.33;;;6.80;99.90;;;;;;2106594;28;20048;-73
2021/10/29 03:57:23;;;;;;;71.28;46.65;;;6.80;99.90;;;;;;2106179;28;20081;-73
2021/10/29 03:58:24;;;;;;;68.10;45.97;;;6.80;99.90;;;;;;2106154;28;20032;-72
2021/10/29 03:59:25;;;;;;;71.07;48.38;;;6.80;99.90;;;;;;2098395;28;20020;-73
2021/10/29 04:00:29;;;;;;;72.95;47.88;;;6.80;99.90;;;;;;2107090;28;20036;-72
2021/10/29 04:01:30;;;;;;;71.68;47.40;;;6.80;99.90;;;;;;2106120;28;20107;-72
2021/10/29 04:02:30;;;;;;;71.28;47.85;;;6.80;99.90;;;;;;2105762;28;20036;-71
2021/10/29 04:03:31;;;;;;;71.25;47.47;;;6.80;99.90;;;;;;2105862;28;20017;-72
2021/10/29 04:04:32;;;;;;;72.00;47.95;;;6.80;99.90;;;;;;2097383;28;20366;-72
2021/10/29 04:05:34;;;;;;;66.78;45.42;;;6.80;99.90;;;;;;2105772;28;20028;-72
2021/10/29 04:06:34;;;;;;;73.95;47.92;;;6.80;99.90;;;;;;2106226;28;20112;-71
2021/10/29 04:07:35;;;;;;;72.40;48.35;;;6.70;99.90;;;;;;2106229;28;20074;-72
2021/10/29 04:08:36;;;;;;;71.80;47.90;;;6.80;99.90;;;;;;2106297;28;20032;-71
2021/10/29 04:09:37;;;;;;;71.65;48.20;;;6.70;99.90;;;;;;2105296;28;20058;-71
2021/10/29 04:10:45;;;;;;;71.80;47.33;;;6.70;99.90;;;;;;2105544;28;20032;-72
2021/10/29 04:11:45;;;;;;;70.50;48.03;;;6.70;99.90;;;;;;2105923;28;20048;-71
2021/10/29 04:12:46;;;;;;;74.10;48.10;;;6.70;99.90;;;;;;2106181;28;20043;-71
2021/10/29 04:13:47;;;;;;;74.95;48.92;;;6.70;99.90;;;;;;2105366;28;20144;-71
2021/10/29 04:14:49;;;;;;;73.10;48.25;;;6.70;99.90;;;;;;2105472;28;20686;-71
2021/10/29 04:15:50;;;;;;;70.43;48.08;;;6.60;99.90;;;;;;2106222;28;20521;-71
2021/10/29 04:16:50;;;;;;;70.97;47.25;;;6.60;99.90;;;;;;2106023;28;20082;-73
2021/10/29 04:17:51;;;;;;;70.50;48.28;;;6.60;99.90;;;;;;2106118;28;20407;-71
2021/10/29 04:18:52;;;;;;;69.80;47.08;;;6.60;99.90;;;;;;2106238;28;20028;-71
2021/10/29 04:19:52;;;;;;;70.30;48.63;;;6.60;99.90;;;;;;2105782;28;20040;-72
2021/10/29 04:20:54;;;;;;;69.25;47.53;;;6.60;99.90;;;;;;2106314;28;20107;-71
2021/10/29 04:21:54;;;;;;;72.03;46.65;;;6.60;99.90;;;;;;2106279;28;20031;-71
2021/10/29 04:22:55;;;;;;;72.90;48.22;;;6.60;99.90;;;;;;2106205;28;20507;-72
2021/10/29 04:23:56;;;;;;;75.85;48.97;;;6.60;99.90;;;;;;2106295;28;20028;-72
2021/10/29 04:24:56;;;;;;;70.20;47.13;;;6.50;99.90;;;;;;2106040;28;20027;-71
2021/10/29 04:25:57;;;;;;;71.22;47.58;;;6.50;99.90;;;;;;2106502;28;20031;-72
2021/10/29 04:27:00;;;;;;;73.38;49.80;;;6.50;99.90;;;;;;2106187;28;20073;-71
2021/10/29 04:28:07;;;;;;;73.57;48.67;;;6.50;99.90;;;;;;2106242;28;20028;-71
2021/10/29 04:29:16;;;;;;;81.78;48.38;;;6.50;99.90;;;;;;2107259;28;20012;-72
2021/10/29 04:30:18;;;;;;;72.13;49.28;;;6.60;99.90;;;;;;2108141;28;20027;-72
2021/10/29 04:31:22;;;;;;;74.00;49.10;;;6.60;99.90;;;;;;2107868;28;20070;-72
2021/10/29 04:32:23;;;;;;;75.93;49.35;;;6.60;99.90;;;;;;2107903;28;20373;-72
2021/10/29 04:33:23;;;;;;;78.85;50.45;;;6.60;99.90;;;;;;2107650;28;20028;-72
2021/10/29 04:34:25;;;;;;;77.40;51.50;;;6.50;99.90;;;;;;2106807;28;20028;-71
2021/10/29 04:35:26;;;;;;;93.32;59.47;;;6.50;99.90;;;;;;2105561;28;20059;-73
2021/10/29 04:36:27;;;;;;;83.75;53.20;;;6.50;99.90;;;;;;2105929;28;20023;-73
2021/10/29 04:37:27;;;;;;;76.05;50.17;;;6.50;99.90;;;;;;2106180;28;20024;-73
2021/10/29 04:38:28;;;;;;;73.93;49.10;;;6.50;99.90;;;;;;2105929;28;20032;-73
2021/10/29 04:39:29;;;;;;;77.53;49.70;;;6.50;99.90;;;;;;2104848;28;20024;-73
2021/10/29 04:40:30;;;;;;;73.88;49.45;;;6.50;99.90;;;;;;2105145;28;20556;-74
2021/10/29 04:41:30;;;;;;;77.25;51.35;;;6.50;99.90;;;;;;2105809;28;20032;-73
2021/10/29 04:42:31;;;;;;;77.50;51.03;;;6.50;99.90;;;;;;2106118;28;20444;-73
2021/10/29 04:43:32;;;;;;;76.22;50.80;;;6.50;99.90;;;;;;2105354;28;20058;-73
2021/10/29 04:44:32;;;;;;;75.80;50.20;;;6.50;99.90;;;;;;2105493;28;20071;-73
2021/10/29 04:45:33;;;;;;;73.88;48.80;;;6.50;99.90;;;;;;2106050;28;20093;-73
2021/10/29 04:46:34;;;;;;;78.72;50.50;;;6.50;99.90;;;;;;2105944;28;20114;-73
2021/10/29 04:47:35;;;;;;;71.97;49.65;;;6.50;99.90;;;;;;2103951;28;20032;-73
2021/10/29 04:48:36;;;;;;;77.55;49.85;;;6.40;99.90;;;;;;2096910;28;20059;-73
2021/10/29 04:49:37;;;;;;;75.18;49.65;;;6.40;99.90;;;;;;2104498;28;20207;-73
2021/10/29 04:50:37;;;;;;;76.50;48.92;;;6.40;99.90;;;;;;2105812;28;20056;-73
2021/10/29 04:51:38;;;;;;;74.45;49.08;;;6.40;99.90;;;;;;2105512;28;20029;-73
2021/10/29 04:52:40;;;;;;;74.50;48.22;;;6.40;99.90;;;;;;2106032;28;20075;-73
2021/10/29 04:53:40;;;;;;;73.07;47.40;;;6.40;99.90;;;;;;2105886;28;20533;-73
2021/10/29 04:54:41;;;;;;;77.53;50.83;;;6.30;99.90;;;;;;2105473;28;20062;-73
2021/10/29 04:55:41;;;;;;;72.07;48.70;;;6.40;99.90;;;;;;2105914;28;20105;-73
2021/10/29 04:56:43;;;;;;;74.03;48.45;;;6.30;99.90;;;;;;2105696;28;20483;-73
2021/10/29 04:57:44;;;;;;;75.75;49.20;;;6.30;99.90;;;;;;2105756;28;20024;-73
2021/10/29 04:58:44;;;;;;;81.82;52.38;;;6.30;99.90;;;;;;2105748;28;20036;-73
2021/10/29 04:59:45;;;;;;;80.05;51.90;;;6.30;99.90;;;;;;2105261;28;20044;-73
2021/10/29 05:00:47;;;;;;;79.97;51.33;;;6.30;99.90;;;;;;2105718;28;20039;-73
2021/10/29 05:01:47;;;;;;;78.38;51.70;;;6.30;99.90;;;;;;2104820;28;20040;-73
2021/10/29 05:02:49;;;;;;;79.68;51.25;;;6.30;99.90;;;;;;2105020;28;20024;-73
2021/10/29 05:03:50;;;;;;;77.25;50.33;;;6.40;99.90;;;;;;2105546;28;20031;-73
2021/10/29 05:04:50;;;;;;;72.28;49.00;;;6.40;99.90;;;;;;2105528;28;20044;-73
2021/10/29 05:05:51;;;;;;;74.72;50.40;;;6.40;99.90;;;;;;2105642;28;20024;-72
2021/10/29 05:06:52;;;;;;;75.55;50.97;;;6.30;99.90;;;;;;2105721;28;20024;-72
2021/10/29 05:07:53;;;;;;;74.20;49.53;;;6.40;99.90;;;;;;2105717;28;20036;-72
2021/10/29 05:08:53;;;;;;;79.95;50.28;;;6.30;99.90;;;;;;2104960;28;20041;-72
2021/10/29 05:09:54;;;;;;;76.75;49.95;;;6.40;99.90;;;;;;2104420;28;20878;-72
2021/10/29 05:10:54;;;;;;;76.75;50.97;;;6.40;99.90;;;;;;2105724;28;20074;-72
2021/10/29 05:11:55;;;;;;;75.40;49.55;;;6.30;99.90;;;;;;2105319;28;20032;-72
2021/10/29 05:12:55;;;;;;;77.25;49.78;;;6.30;99.90;;;;;;2096584;28;20127;-73
2021/10/29 05:13:56;;;;;;;75.95;50.33;;;6.30;99.90;;;;;;2096657;28;20090;-73
2021/10/29 05:14:57;;;;;;;73.15;50.13;;;6.30;99.90;;;;;;2105012;28;20067;-73
2021/10/29 05:15:57;;;;;;;74.72;49.47;;;6.30;99.90;;;;;;2105539;28;20040;-73
2021/10/29 05:16:58;;;;;;;80.22;52.50;;;6.30;99.90;;;;;;2105565;28;20107;-73
2021/10/29 05:18:00;;;;;;;79.57;51.28;;;6.30;99.90;;;;;;2105100;28;20489;-73